createdAt,value
2022-09-12T00:03:42.220Z,23.40
2022-09-12T00:08:44.356Z,23.24
2022-09-12T00:13:46.516Z,23.09
2022-09-12T00:18:48.492Z,23.23
2022-09-12T00:23:51.017Z,23.28
2022-09-12T00:28:53.213Z,23.44
2022-09-12T00:33:56.878Z,23.62
2022-09-12T00:38:59.466Z,23.53
2022-09-12T00:44:12.104Z,23.91
2022-09-12T00:49:35.390Z,24.18
2022-09-12T00:55:01.502Z,24.15
2022-09-12T01:00:17.355Z,24.42
2022-09-12T01:05:19.791Z,24.33
2022-09-12T01:10:21.711Z,24.30
2022-09-12T01:15:23.892Z,24.33
2022-09-12T01:20:58.085Z,24.30
2022-09-12T01:26:30.957Z,24.41
2022-09-12T01:32:03.962Z,24.11
2022-09-12T01:37:16.013Z,24.26
2022-09-12T01:42:40.575Z,24.29
2022-09-12T01:47:46.903Z,24.28
2022-09-12T01:52:58.971Z,24.30
2022-09-12T01:58:11.983Z,24.27
2022-09-12T02:03:20.509Z,24.31
2022-09-12T02:08:29.164Z,24.33
2022-09-12T02:13:31.021Z,24.18
2022-09-12T02:18:33.407Z,24.27
2022-09-12T02:23:38.557Z,24.28
2022-09-12T02:28:42.562Z,24.27
2022-09-12T02:33:47.535Z,24.16
2022-09-12T02:38:49.588Z,24.03
2022-09-12T02:43:52.707Z,23.89
2022-09-12T02:48:54.956Z,23.76
2022-09-12T02:53:57.358Z,23.57
2022-09-12T02:59:03.789Z,23.42
2022-09-12T03:04:43.910Z,23.39
2022-09-12T03:09:48.395Z,23.45
2022-09-12T03:15:01.693Z,23.48
2022-09-12T03:20:17.125Z,23.47
2022-09-12T03:25:33.387Z,23.47
2022-09-12T03:30:40.835Z,23.58
2022-09-12T03:35:43.251Z,23.63
2022-09-12T03:40:45.519Z,23.44
2022-09-12T03:45:51.077Z,23.66
2022-09-12T03:50:53.096Z,23.59
2022-09-12T03:55:54.955Z,23.52
2022-09-12T04:00:57.058Z,22.98
2022-09-12T04:06:31.380Z,22.41
2022-09-12T04:11:33.438Z,22.14
2022-09-12T04:16:35.761Z,22.02
2022-09-12T04:21:37.903Z,21.68
2022-09-12T04:26:39.768Z,21.84
2022-09-12T04:31:42.267Z,21.84
2022-09-12T04:36:44.297Z,21.66
2022-09-12T04:41:46.635Z,21.83
2022-09-12T04:46:48.820Z,21.70
2022-09-12T04:51:53.234Z,21.55
2022-09-12T04:56:55.247Z,21.78
2022-09-12T05:01:57.156Z,21.78
2022-09-12T05:06:59.041Z,21.80
2022-09-12T05:12:05.490Z,21.92
2022-09-12T05:17:07.967Z,21.82
2022-09-12T05:22:09.981Z,21.81
2022-09-12T05:33:52.742Z,21.92
2022-09-12T05:38:54.636Z,22.00
2022-09-12T05:43:59.239Z,21.98
2022-09-12T05:49:10.154Z,22.15
2022-09-12T05:54:13.846Z,22.05
2022-09-12T05:59:18.787Z,21.93
2022-09-12T06:04:20.825Z,22.05
2022-09-12T06:09:25.414Z,22.10
2022-09-12T06:14:27.363Z,22.09
2022-09-12T06:19:29.382Z,22.10
2022-09-12T06:24:31.292Z,22.16
2022-09-12T06:29:33.045Z,22.13
2022-09-12T06:34:36.645Z,22.21
2022-09-12T06:39:38.628Z,22.24
2022-09-12T06:44:41.366Z,22.23
2022-09-12T06:49:43.241Z,22.31
2022-09-12T06:54:45.161Z,22.23
2022-09-12T06:59:47.106Z,22.48
2022-09-12T07:04:51.884Z,22.34
2022-09-12T07:09:54.323Z,22.59
2022-09-12T07:15:00.303Z,22.71
2022-09-12T07:20:11.971Z,22.91
2022-09-12T07:25:14.064Z,22.92
2022-09-12T07:30:16.474Z,23.19
2022-09-12T07:35:18.264Z,23.42
2022-09-12T07:40:20.133Z,23.47
2022-09-12T07:45:22.215Z,23.81
2022-09-12T07:50:24.127Z,24.01
2022-09-12T07:55:26.472Z,24.16
2022-09-12T08:00:35.985Z,24.35
2022-09-12T08:05:37.913Z,24.53
2022-09-12T08:18:04.454Z,24.92
2022-09-12T08:23:06.426Z,25.05
2022-09-12T08:28:08.462Z,25.05
2022-09-12T08:33:10.919Z,25.10
2022-09-12T08:38:13.377Z,25.13
2022-09-12T08:43:33.460Z,25.08
2022-09-12T08:48:35.856Z,25.57
2022-09-12T08:53:37.749Z,26.37
2022-09-12T08:58:43.558Z,27.29
2022-09-12T09:04:06.300Z,28.18
2022-09-12T09:09:47.036Z,28.95
2022-09-12T09:15:52.091Z,29.92
2022-09-12T09:20:59.675Z,30.45
2022-09-12T09:27:29.718Z,29.31
2022-09-12T09:32:38.567Z,29.11
2022-09-12T09:37:43.554Z,28.63
2022-09-12T09:43:00.539Z,28.60
2022-09-12T09:48:21.568Z,28.46
2022-09-12T09:54:36.349Z,28.67
2022-09-12T09:59:38.191Z,28.82
2022-09-12T10:12:22.387Z,28.49
2022-09-12T10:17:34.462Z,28.41
2022-09-12T10:22:38.417Z,28.20
2022-09-12T10:27:41.768Z,27.84
2022-09-12T10:32:50.721Z,27.55
2022-09-12T10:37:59.587Z,27.26
2022-09-12T10:43:03.012Z,27.10
2022-09-12T10:48:32.473Z,27.42
2022-09-12T10:53:42.050Z,27.87
2022-09-12T10:59:41.229Z,28.11
2022-09-12T11:04:58.381Z,28.54
2022-09-12T11:10:16.067Z,28.53
2022-09-12T11:15:36.809Z,28.34
2022-09-12T11:20:58.091Z,28.31
2022-09-12T11:26:05.802Z,28.13
2022-09-12T11:31:30.996Z,27.79
2022-09-12T11:36:44.670Z,27.65
2022-09-12T11:41:58.959Z,27.04
2022-09-12T11:47:01.440Z,26.78
2022-09-12T11:52:36.633Z,26.66
2022-09-12T11:57:44.939Z,26.35
2022-09-12T12:02:50.013Z,26.52
2022-09-12T12:07:57.593Z,26.41
2022-09-12T12:13:02.136Z,26.47
2022-09-12T12:18:08.154Z,26.65
2022-09-12T12:23:24.932Z,26.79
2022-09-12T12:28:38.952Z,26.76
2022-09-12T12:33:44.051Z,26.56
2022-09-12T12:38:46.112Z,26.11
2022-09-12T12:43:52.745Z,26.01
2022-09-12T12:50:04.338Z,26.07
2022-09-12T12:55:12.547Z,26.00
2022-09-12T13:00:20.420Z,25.78
2022-09-12T13:05:24.806Z,26.16
2022-09-12T13:10:29.463Z,26.95
2022-09-12T13:15:37.342Z,27.01
2022-09-12T13:20:53.661Z,27.05
2022-09-12T13:26:00.740Z,27.49
2022-09-12T13:31:16.172Z,27.52
2022-09-12T13:36:42.597Z,28.01
2022-09-12T13:41:44.453Z,27.82
2022-09-12T13:46:46.780Z,28.54
2022-09-12T13:51:56.639Z,28.36
2022-09-12T13:56:59.998Z,28.28
2022-09-12T14:02:02.001Z,28.19
2022-09-12T14:07:24.398Z,28.17
2022-09-12T14:12:29.703Z,27.90
2022-09-12T14:17:36.434Z,27.46
2022-09-12T14:22:39.221Z,27.22
2022-09-12T14:27:49.446Z,27.23
2022-09-12T14:33:09.797Z,27.42
2022-09-12T14:38:17.695Z,27.51
2022-09-12T14:43:24.457Z,27.22
2022-09-12T14:48:28.804Z,27.27
2022-09-12T14:53:34.984Z,27.19
2022-09-12T14:58:38.422Z,27.11
2022-09-12T15:03:48.863Z,27.10
2022-09-12T15:08:53.952Z,27.10
2022-09-12T15:13:56.036Z,26.87
2022-09-12T15:18:58.014Z,27.16
2022-09-12T15:23:59.805Z,27.18
2022-09-12T15:30:10.610Z,27.25
2022-09-12T15:35:18.061Z,27.36
2022-09-12T15:40:20.251Z,27.42
2022-09-12T15:45:28.039Z,27.38
2022-09-12T15:50:30.990Z,27.07
2022-09-12T15:55:33.066Z,26.99
2022-09-12T16:00:34.969Z,27.11
2022-09-12T16:05:38.839Z,26.93
2022-09-12T16:10:43.191Z,26.90
2022-09-12T16:15:45.168Z,26.91
2022-09-12T16:20:47.248Z,26.84
2022-09-12T16:27:01.136Z,26.83
2022-09-12T16:32:03.421Z,26.68
2022-09-12T16:37:05.933Z,26.54
2022-09-12T16:42:07.760Z,26.71
2022-09-12T16:47:09.663Z,26.72
2022-09-12T16:53:20.787Z,26.63
2022-09-12T16:58:22.871Z,26.36
2022-09-12T17:03:24.914Z,26.44
2022-09-12T17:09:36.774Z,26.45
2022-09-12T17:14:38.850Z,26.31
2022-09-12T17:19:40.919Z,26.31
2022-09-12T17:24:43.040Z,26.19
2022-09-12T17:29:44.897Z,26.28
2022-09-12T17:34:46.917Z,26.29
2022-09-12T17:39:49.194Z,26.46
2022-09-12T17:44:51.133Z,26.60
2022-09-12T17:50:01.699Z,26.41
2022-09-12T17:55:15.893Z,26.33
2022-09-12T18:00:18.062Z,26.29
2022-09-12T18:05:20.048Z,26.46
2022-09-12T18:10:21.887Z,26.32
2022-09-12T18:16:33.717Z,26.47
2022-09-12T18:21:35.731Z,26.46
2022-09-12T18:26:38.152Z,26.41
2022-09-12T18:31:40.037Z,26.31
2022-09-12T18:36:43.739Z,26.22
2022-09-12T18:41:45.713Z,26.24
2022-09-12T18:46:47.888Z,26.20
2022-09-12T18:51:49.840Z,26.13
2022-09-12T18:56:51.730Z,26.03
2022-09-12T19:01:53.851Z,26.21
2022-09-12T19:06:55.810Z,26.01
2022-09-12T19:11:57.682Z,26.19
2022-09-12T19:16:59.523Z,26.15
2022-09-12T19:22:01.375Z,26.16
2022-09-12T19:27:03.553Z,26.48
2022-09-12T19:32:05.513Z,26.62
2022-09-12T19:37:07.726Z,26.46
2022-09-12T19:42:09.750Z,26.55
2022-09-12T19:48:21.051Z,26.72
2022-09-12T19:53:22.948Z,26.70
2022-09-12T19:58:25.118Z,26.51
2022-09-12T20:03:27.057Z,26.25
2022-09-12T20:08:29.095Z,25.97
2022-09-12T20:13:30.999Z,25.99
2022-09-12T20:18:33.002Z,25.80
2022-09-12T20:23:34.917Z,25.63
2022-09-12T20:28:38.082Z,25.38
2022-09-12T20:33:40.410Z,25.51
2022-09-12T20:38:46.518Z,25.90
2022-09-12T20:43:52.625Z,25.77
2022-09-12T20:48:54.909Z,25.56
2022-09-12T20:53:58.670Z,25.70
2022-09-12T20:59:01.219Z,25.51
2022-09-12T21:04:04.858Z,25.62
2022-09-12T21:09:07.953Z,25.22
2022-09-12T21:14:10.669Z,25.04
2022-09-12T21:19:12.539Z,25.13
2022-09-12T21:24:15.276Z,24.77
2022-09-12T21:29:17.269Z,24.41
2022-09-12T21:34:19.345Z,24.07
2022-09-12T21:39:22.445Z,23.88
2022-09-12T21:44:24.233Z,23.85
2022-09-12T21:49:58.976Z,23.85
2022-09-12T21:55:00.910Z,23.55
2022-09-12T22:00:05.545Z,23.39
2022-09-12T22:05:10.548Z,23.39
2022-09-12T22:10:12.398Z,23.24
2022-09-12T22:16:24.486Z,23.22
2022-09-12T22:21:26.476Z,23.54
2022-09-12T22:26:29.423Z,23.86
2022-09-12T22:31:32.103Z,24.19
2022-09-12T22:36:37.044Z,24.16
2022-09-12T22:41:40.760Z,24.39
2022-09-12T22:46:42.752Z,24.53
2022-09-12T22:51:44.681Z,24.96
2022-09-12T22:56:46.925Z,24.99
2022-09-12T23:01:48.743Z,24.79
2022-09-12T23:06:50.628Z,25.01
2022-09-12T23:11:52.806Z,24.93
2022-09-12T23:16:54.692Z,24.97
2022-09-12T23:21:56.626Z,24.91
2022-09-12T23:26:59.817Z,24.71
2022-09-12T23:32:03.495Z,24.84
2022-09-12T23:37:05.291Z,24.78
2022-09-12T23:42:07.263Z,24.77
2022-09-12T23:47:41.593Z,24.78
2022-09-12T23:52:45.501Z,24.54
2022-09-12T23:57:47.392Z,24.70
